createdAt,value
2018-04-14T00:00:05.189Z,975.54
2018-04-14T00:01:05.264Z,975.68
2018-04-14T00:02:05.740Z,975.71
2018-04-14T00:03:05.738Z,975.68
2018-04-14T00:04:05.730Z,975.68
2018-04-14T00:05:05.181Z,975.80
2018-04-14T00:06:04.980Z,975.71
2018-04-14T00:07:05.823Z,975.63
2018-04-14T00:08:05.623Z,975.68
2018-04-14T00:09:05.006Z,975.66
2018-04-14T00:10:05.484Z,975.66
2018-04-14T00:11:05.632Z,975.71
2018-04-14T00:12:04.959Z,975.86
2018-04-14T00:13:05.942Z,975.77
2018-04-14T00:14:05.432Z,975.77
2018-04-14T00:15:05.226Z,975.83
2018-04-14T00:16:05.832Z,975.80
2018-04-14T00:17:05.219Z,975.83
2018-04-14T00:18:05.017Z,975.74
2018-04-14T00:19:05.237Z,975.94
2018-04-14T00:20:05.550Z,975.82
2018-04-14T00:21:05.195Z,975.82
2018-04-14T00:22:05.901Z,975.91
2018-04-14T00:23:05.635Z,975.85
2018-04-14T00:24:05.591Z,975.85
2018-04-14T00:25:05.218Z,975.80
2018-04-14T00:26:06.024Z,975.94
2018-04-14T00:27:05.711Z,975.85
2018-04-14T00:28:05.574Z,975.97
2018-04-14T00:29:05.697Z,975.82
2018-04-14T00:30:05.763Z,975.88
2018-04-14T00:31:05.704Z,976.05
2018-04-14T00:32:05.958Z,975.85
2018-04-14T00:33:05.553Z,975.77
2018-04-14T00:34:05.678Z,975.82
2018-04-14T00:35:05.347Z,976.05
2018-04-14T00:36:05.858Z,976.05
2018-04-14T00:37:06.171Z,976.05
2018-04-14T00:38:05.123Z,976.05
2018-04-14T00:39:05.352Z,976.11
2018-04-14T00:40:10.336Z,975.94
2018-04-14T00:41:05.228Z,976.05
2018-04-14T00:42:05.487Z,975.99
2018-04-14T00:43:05.405Z,975.96
2018-04-14T00:44:05.175Z,976.11
2018-04-14T00:45:06.002Z,975.91
2018-04-14T00:46:06.046Z,975.94
2018-04-14T00:47:05.858Z,975.94
2018-04-14T00:48:05.863Z,975.97
2018-04-14T00:49:05.511Z,975.94
2018-04-14T00:50:05.128Z,975.99
2018-04-14T00:51:05.922Z,975.94
2018-04-14T00:52:05.967Z,975.97
2018-04-14T00:53:05.720Z,975.97
2018-04-14T00:54:05.232Z,976.05
2018-04-14T00:55:05.325Z,976.05
2018-04-14T00:56:05.554Z,975.91
2018-04-14T00:57:05.447Z,976.02
2018-04-14T00:58:05.779Z,976.08
2018-04-14T00:59:05.305Z,976.17
2018-04-14T01:00:05.381Z,976.08
2018-04-14T01:01:05.301Z,976.08
2018-04-14T01:02:05.457Z,976.03
2018-04-14T01:03:05.574Z,976.05
2018-04-14T01:04:05.746Z,976.05
2018-04-14T01:05:06.091Z,976.17
2018-04-14T01:06:04.972Z,976.23
2018-04-14T01:07:05.681Z,976.03
2018-04-14T01:08:05.265Z,976.17
2018-04-14T01:09:05.869Z,976.14
2018-04-14T01:10:05.616Z,976.20
2018-04-14T01:11:05.424Z,976.17
2018-04-14T01:12:05.051Z,976.20
2018-04-14T01:13:05.335Z,976.14
2018-04-14T01:14:05.474Z,976.09
2018-04-14T01:15:05.248Z,976.06
2018-04-14T01:16:05.045Z,976.11
2018-04-14T01:17:05.670Z,976.17
2018-04-14T01:18:05.030Z,976.14
2018-04-14T01:19:05.861Z,976.23
2018-04-14T01:20:05.628Z,976.03
2018-04-14T01:21:05.107Z,976.15
2018-04-14T01:22:04.994Z,976.12
2018-04-14T01:23:05.855Z,976.12
2018-04-14T01:24:05.819Z,976.09
2018-04-14T01:25:04.999Z,976.17
2018-04-14T01:26:06.003Z,976.12
2018-04-14T01:27:05.085Z,976.09
2018-04-14T01:28:05.312Z,976.09
2018-04-14T01:29:05.490Z,976.23
2018-04-14T01:30:05.479Z,976.26
2018-04-14T01:31:05.747Z,976.18
2018-04-14T01:32:05.201Z,976.29
2018-04-14T01:33:05.763Z,976.26
2018-04-14T01:34:05.881Z,976.20
2018-04-14T01:35:05.959Z,976.18
2018-04-14T01:36:05.984Z,976.20
2018-04-14T01:37:05.517Z,976.18
2018-04-14T01:38:05.950Z,976.15
2018-04-14T01:39:05.945Z,976.26
2018-04-14T01:40:06.196Z,976.29
2018-04-14T01:41:05.842Z,976.23
2018-04-14T01:42:05.467Z,976.29
2018-04-14T01:43:05.536Z,976.20
2018-04-14T01:44:05.737Z,976.32
2018-04-14T01:45:05.280Z,976.37
2018-04-14T01:46:06.169Z,976.37
2018-04-14T01:47:05.443Z,976.49
2018-04-14T01:48:05.042Z,976.52
2018-04-14T01:49:05.095Z,976.37
2018-04-14T01:50:05.521Z,976.29
2018-04-14T01:51:05.073Z,976.43
2018-04-14T01:52:05.053Z,976.43
2018-04-14T01:53:05.237Z,976.40
2018-04-14T01:54:05.394Z,976.40
2018-04-14T01:55:05.519Z,976.55
2018-04-14T01:56:05.747Z,976.38
2018-04-14T01:57:05.358Z,976.52
2018-04-14T01:58:05.774Z,976.49
2018-04-14T01:59:05.385Z,976.37
2018-04-14T02:00:05.043Z,976.55
2018-04-14T02:01:05.410Z,976.57
2018-04-14T02:02:05.296Z,976.52
2018-04-14T02:03:06.005Z,976.49
2018-04-14T02:04:05.075Z,976.37
2018-04-14T02:05:06.349Z,976.46
2018-04-14T02:06:05.300Z,976.43
2018-04-14T02:07:05.366Z,976.52
2018-04-14T02:08:05.429Z,976.40
2018-04-14T02:09:05.105Z,976.40
2018-04-14T02:10:05.563Z,976.46
2018-04-14T02:11:05.106Z,976.46
2018-04-14T02:12:10.516Z,976.43
2018-04-14T02:13:05.477Z,976.49
2018-04-14T02:14:05.711Z,976.49
2018-04-14T02:15:05.525Z,976.57
2018-04-14T02:16:05.019Z,976.49
2018-04-14T02:17:05.585Z,976.35
2018-04-14T02:18:05.124Z,976.60
2018-04-14T02:19:05.786Z,976.40
2018-04-14T02:20:05.748Z,976.49
2018-04-14T02:21:05.734Z,976.55
2018-04-14T02:22:05.563Z,976.49
2018-04-14T02:23:05.219Z,976.63
2018-04-14T02:24:05.171Z,976.66
2018-04-14T02:25:05.247Z,976.66
2018-04-14T02:26:05.840Z,976.63
2018-04-14T02:27:05.748Z,976.60
2018-04-14T02:28:10.404Z,976.61
2018-04-14T02:29:05.697Z,976.58
2018-04-14T02:30:05.050Z,976.63
2018-04-14T02:31:05.974Z,976.58
2018-04-14T02:32:05.650Z,976.66
2018-04-14T02:33:05.260Z,976.55
2018-04-14T02:34:05.895Z,976.60
2018-04-14T02:35:05.965Z,976.60
2018-04-14T02:36:06.056Z,976.60
2018-04-14T02:37:05.211Z,976.66
2018-04-14T02:38:05.400Z,976.58
2018-04-14T02:39:05.974Z,976.43
2018-04-14T02:40:05.354Z,976.55
2018-04-14T02:41:05.875Z,976.69
2018-04-14T02:42:05.796Z,976.58
2018-04-14T02:43:06.092Z,976.63
2018-04-14T02:44:05.170Z,976.66
2018-04-14T02:45:06.015Z,976.66
2018-04-14T02:46:10.073Z,976.63
2018-04-14T02:47:06.239Z,976.69
2018-04-14T02:48:05.289Z,976.74
2018-04-14T02:49:05.025Z,976.66
2018-04-14T02:50:05.730Z,976.72
2018-04-14T02:51:05.282Z,976.77
2018-04-14T02:52:05.309Z,976.82
2018-04-14T02:53:06.014Z,976.85
2018-04-14T02:54:05.517Z,976.85
2018-04-14T02:55:05.485Z,976.91
2018-04-14T02:56:05.759Z,976.97
2018-04-14T02:57:05.666Z,976.80
2018-04-14T02:58:05.320Z,976.85
2018-04-14T02:59:05.305Z,976.80
2018-04-14T03:00:06.338Z,976.91
2018-04-14T03:01:05.460Z,976.74
2018-04-14T03:02:05.085Z,976.74
2018-04-14T03:03:05.883Z,976.88
2018-04-14T03:04:05.976Z,976.85
2018-04-14T03:05:05.674Z,976.94
2018-04-14T03:06:05.815Z,976.83
2018-04-14T03:07:05.370Z,977.14
2018-04-14T03:08:06.007Z,976.91
2018-04-14T03:09:05.485Z,977.14
2018-04-14T03:10:05.715Z,977.00
2018-04-14T03:11:06.036Z,977.03
2018-04-14T03:12:05.157Z,976.97
2018-04-14T03:13:05.787Z,976.94
2018-04-14T03:14:05.752Z,977.08
2018-04-14T03:15:05.908Z,977.17
2018-04-14T03:16:04.983Z,977.14
2018-04-14T03:17:06.016Z,977.17
2018-04-14T03:18:05.098Z,977.08
2018-04-14T03:19:05.693Z,977.20
2018-04-14T03:20:05.523Z,977.23
2018-04-14T03:21:05.458Z,977.14
2018-04-14T03:22:05.526Z,977.00
2018-04-14T03:23:05.318Z,977.08
2018-04-14T03:24:05.855Z,977.08
2018-04-14T03:25:05.092Z,977.08
2018-04-14T03:26:05.115Z,977.11
2018-04-14T03:27:05.122Z,977.14
2018-04-14T03:28:05.730Z,977.11
2018-04-14T03:29:15.596Z,977.06
2018-04-14T03:30:05.430Z,977.20
2018-04-14T03:31:05.114Z,977.23
2018-04-14T03:32:05.173Z,977.20
2018-04-14T03:33:05.177Z,977.26
2018-04-14T03:34:05.307Z,977.34
2018-04-14T03:35:05.481Z,977.11
2018-04-14T03:36:05.851Z,977.37
2018-04-14T03:37:04.997Z,977.40
2018-04-14T03:38:05.942Z,977.23
2018-04-14T03:39:05.012Z,977.40
2018-04-14T03:40:05.867Z,977.26
2018-04-14T03:41:05.286Z,977.34
2018-04-14T03:42:05.028Z,977.31
2018-04-14T03:43:05.729Z,977.20
2018-04-14T03:44:05.226Z,977.23
2018-04-14T03:45:05.173Z,977.28
2018-04-14T03:46:05.323Z,977.28
2018-04-14T03:47:05.195Z,977.20
2018-04-14T03:48:05.283Z,977.34
2018-04-14T03:49:05.732Z,977.28
2018-04-14T03:50:05.790Z,977.23
2018-04-14T03:51:05.309Z,977.37
2018-04-14T03:52:06.169Z,977.29
2018-04-14T03:53:05.407Z,977.40
2018-04-14T03:54:05.439Z,977.40
2018-04-14T03:55:05.325Z,977.40
2018-04-14T03:56:05.096Z,977.40
2018-04-14T03:57:05.920Z,977.51
2018-04-14T03:58:05.967Z,977.32
2018-04-14T03:59:05.748Z,977.49
2018-04-14T04:00:04.957Z,977.37
2018-04-14T04:01:05.685Z,977.49
2018-04-14T04:02:05.735Z,977.37
2018-04-14T04:03:10.761Z,977.49
2018-04-14T04:04:05.301Z,977.49
2018-04-14T04:05:05.588Z,977.35
2018-04-14T04:06:05.526Z,977.54
2018-04-14T04:07:05.349Z,977.43
2018-04-14T04:08:05.337Z,977.60
2018-04-14T04:09:05.741Z,977.49
2018-04-14T04:10:05.761Z,977.52
2018-04-14T04:11:05.626Z,977.52
2018-04-14T04:12:05.546Z,977.49
2018-04-14T04:13:05.611Z,977.52
2018-04-14T04:14:05.464Z,977.65
2018-04-14T04:15:10.829Z,977.55
2018-04-14T04:16:05.210Z,977.71
2018-04-14T04:17:05.345Z,977.77
2018-04-14T04:18:05.201Z,977.79
2018-04-14T04:19:05.783Z,977.77
2018-04-14T04:20:05.661Z,977.68
2018-04-14T04:21:05.322Z,977.61
2018-04-14T04:22:05.327Z,977.71
2018-04-14T04:23:05.002Z,977.77
2018-04-14T04:24:05.111Z,977.80
2018-04-14T04:25:05.943Z,977.80
2018-04-14T04:26:05.457Z,977.74
2018-04-14T04:27:05.776Z,977.97
2018-04-14T04:28:05.179Z,977.77
2018-04-14T04:29:05.157Z,977.75
2018-04-14T04:30:05.104Z,977.78
2018-04-14T04:31:05.487Z,977.97
2018-04-14T04:32:06.911Z,977.80
2018-04-14T04:33:05.607Z,977.83
2018-04-14T04:34:06.837Z,977.86
2018-04-14T04:35:10.271Z,977.89
2018-04-14T04:36:05.332Z,977.86
2018-04-14T04:37:06.866Z,977.86
2018-04-14T04:38:05.315Z,977.86
2018-04-14T04:39:05.304Z,977.86
2018-04-14T04:40:05.514Z,978.03
2018-04-14T04:41:05.569Z,977.89
2018-04-14T04:42:05.816Z,977.95
2018-04-14T04:43:05.977Z,977.89
2018-04-14T04:44:05.237Z,977.92
2018-04-14T04:45:05.250Z,977.92
2018-04-14T04:46:05.430Z,978.01
2018-04-14T04:47:05.512Z,978.09
2018-04-14T04:48:05.976Z,978.01
2018-04-14T04:49:05.953Z,978.06
2018-04-14T04:50:05.057Z,977.95
2018-04-14T04:51:05.749Z,978.06
2018-04-14T04:52:05.438Z,978.01
2018-04-14T04:53:10.422Z,978.09
2018-04-14T04:54:05.191Z,978.09
2018-04-14T04:55:06.759Z,978.06
2018-04-14T04:56:05.216Z,978.12
2018-04-14T04:57:05.126Z,978.18
2018-04-14T04:58:06.137Z,978.12
2018-04-14T04:59:05.385Z,978.26
2018-04-14T05:00:05.615Z,978.15
2018-04-14T05:01:05.829Z,978.12
2018-04-14T05:02:05.176Z,978.17
2018-04-14T05:03:05.410Z,978.34
2018-04-14T05:04:06.243Z,978.31
2018-04-14T05:05:05.738Z,978.31
2018-04-14T05:06:05.777Z,978.34
2018-04-14T05:07:05.415Z,978.26
2018-04-14T05:08:05.212Z,978.31
2018-04-14T05:09:05.852Z,978.40
2018-04-14T05:10:10.977Z,978.23
2018-04-14T05:11:05.371Z,978.17
2018-04-14T05:12:05.320Z,978.31
2018-04-14T05:13:05.596Z,978.31
2018-04-14T05:14:05.835Z,978.29
2018-04-14T05:15:05.967Z,978.29
2018-04-14T05:16:05.216Z,978.37
2018-04-14T05:17:05.341Z,978.37
2018-04-14T05:18:05.490Z,978.43
2018-04-14T05:19:05.394Z,978.31
2018-04-14T05:20:05.515Z,978.53
2018-04-14T05:21:05.120Z,978.31
2018-04-14T05:22:05.238Z,978.42
2018-04-14T05:23:05.539Z,978.44
2018-04-14T05:24:05.539Z,978.46
2018-04-14T05:25:05.426Z,978.46
2018-04-14T05:26:05.725Z,978.52
2018-04-14T05:27:05.420Z,978.54
2018-04-14T05:28:05.929Z,978.44
2018-04-14T05:29:05.043Z,978.38
2018-04-14T05:30:05.856Z,978.46
2018-04-14T05:31:05.692Z,978.49
2018-04-14T05:32:05.190Z,978.57
2018-04-14T05:33:05.796Z,978.62
2018-04-14T05:34:05.960Z,978.48
2018-04-14T05:35:05.148Z,978.50
2018-04-14T05:36:05.573Z,978.47
2018-04-14T05:37:06.456Z,978.47
2018-04-14T05:38:05.198Z,978.49
2018-04-14T05:39:07.502Z,978.45
2018-04-14T05:40:05.749Z,978.45
2018-04-14T05:41:05.745Z,978.52
2018-04-14T05:42:05.915Z,978.55
2018-04-14T05:43:05.735Z,978.51
2018-04-14T05:44:05.564Z,978.44
2018-04-14T05:45:05.906Z,978.55
2018-04-14T05:46:05.579Z,978.51
2018-04-14T05:47:05.489Z,978.62
2018-04-14T05:48:05.847Z,978.59
2018-04-14T05:49:05.378Z,978.67
2018-04-14T05:50:05.272Z,978.66
2018-04-14T05:51:05.275Z,978.62
2018-04-14T05:52:05.787Z,978.64
2018-04-14T05:53:06.033Z,978.78
2018-04-14T05:54:10.934Z,978.78
2018-04-14T05:55:05.441Z,978.69
2018-04-14T05:56:05.511Z,978.88
2018-04-14T05:57:10.779Z,978.88
2018-04-14T05:58:05.063Z,978.90
2018-04-14T05:59:05.652Z,978.87
2018-04-14T06:00:05.595Z,979.01
2018-04-14T06:01:15.174Z,978.95
2018-04-14T06:02:05.232Z,978.95
2018-04-14T06:03:05.276Z,978.74
2018-04-14T06:04:05.485Z,979.02
2018-04-14T06:05:05.505Z,979.02
2018-04-14T06:06:05.432Z,978.96
2018-04-14T06:07:05.209Z,978.98
2018-04-14T06:08:05.393Z,978.92
2018-04-14T06:09:05.251Z,979.06
2018-04-14T06:10:05.227Z,979.03
2018-04-14T06:11:05.121Z,978.88
2018-04-14T06:12:06.275Z,979.11
2018-04-14T06:13:05.690Z,979.04
2018-04-14T06:14:05.468Z,979.01
2018-04-14T06:15:05.725Z,979.09
2018-04-14T06:16:05.753Z,979.06
2018-04-14T06:17:05.415Z,979.09
2018-04-14T06:18:05.106Z,979.11
2018-04-14T06:19:06.087Z,979.11
2018-04-14T06:20:05.208Z,979.22
2018-04-14T06:21:05.191Z,978.96
2018-04-14T06:22:06.054Z,979.10
2018-04-14T06:23:05.184Z,979.10
2018-04-14T06:24:05.964Z,979.21
2018-04-14T06:25:05.509Z,979.15
2018-04-14T06:26:05.490Z,979.20
2018-04-14T06:27:06.208Z,979.06
2018-04-14T06:28:05.548Z,979.14
2018-04-14T06:29:05.193Z,979.23
2018-04-14T06:30:05.210Z,979.05
2018-04-14T06:31:05.775Z,979.14
2018-04-14T06:32:06.357Z,979.13
2018-04-14T06:33:05.663Z,979.11
2018-04-14T06:34:05.867Z,979.25
2018-04-14T06:35:05.522Z,979.14
2018-04-14T06:36:05.405Z,979.11
2018-04-14T06:37:05.555Z,979.17
2018-04-14T06:38:05.680Z,979.14
2018-04-14T06:39:04.985Z,978.93
2018-04-14T06:40:05.902Z,979.10
2018-04-14T06:41:05.401Z,979.22
2018-04-14T06:42:05.365Z,979.25
2018-04-14T06:43:05.431Z,979.16
2018-04-14T06:44:05.538Z,979.33
2018-04-14T06:45:05.799Z,979.27
2018-04-14T06:46:06.131Z,979.35
2018-04-14T06:47:05.892Z,979.35
2018-04-14T06:48:05.473Z,979.32
2018-04-14T06:49:05.353Z,979.26
2018-04-14T06:50:05.308Z,979.29
2018-04-14T06:51:05.104Z,979.29
2018-04-14T06:52:05.578Z,979.20
2018-04-14T06:53:05.989Z,979.37
2018-04-14T06:54:06.305Z,979.34
2018-04-14T06:55:05.426Z,979.37
2018-04-14T06:56:05.604Z,979.28
2018-04-14T06:57:05.528Z,979.45
2018-04-14T06:58:05.007Z,979.45
2018-04-14T06:59:05.651Z,979.42
2018-04-14T07:00:05.809Z,979.45
2018-04-14T07:01:05.164Z,979.51
2018-04-14T07:02:05.211Z,979.39
2018-04-14T07:03:05.392Z,979.62
2018-04-14T07:04:05.941Z,979.56
2018-04-14T07:05:05.651Z,979.47
2018-04-14T07:06:05.287Z,979.53
2018-04-14T07:07:05.281Z,979.50
2018-04-14T07:08:05.719Z,979.70
2018-04-14T07:09:05.268Z,979.73
2018-04-14T07:10:05.236Z,979.72
2018-04-14T07:11:05.799Z,979.55
2018-04-14T07:12:15.924Z,979.63
2018-04-14T07:13:05.821Z,979.66
2018-04-14T07:14:05.330Z,979.72
2018-04-14T07:15:05.678Z,979.66
2018-04-14T07:16:05.316Z,979.57
2018-04-14T07:17:05.377Z,979.66
2018-04-14T07:18:05.756Z,979.63
2018-04-14T07:19:05.969Z,979.60
2018-04-14T07:20:04.927Z,979.60
2018-04-14T07:21:06.145Z,979.62
2018-04-14T07:22:05.615Z,979.59
2018-04-14T07:23:05.638Z,979.76
2018-04-14T07:24:05.506Z,979.62
2018-04-14T07:25:05.290Z,979.68
2018-04-14T07:26:05.601Z,979.62
2018-04-14T07:27:05.493Z,979.79
2018-04-14T07:28:05.499Z,979.68
2018-04-14T07:29:05.195Z,979.73
2018-04-14T07:30:05.848Z,979.68
2018-04-14T07:31:05.413Z,979.65
2018-04-14T07:32:05.805Z,979.64
2018-04-14T07:33:09.974Z,979.67
2018-04-14T07:34:05.307Z,979.59
2018-04-14T07:35:05.286Z,979.59
2018-04-14T07:36:06.261Z,979.59
2018-04-14T07:37:05.928Z,979.70
2018-04-14T07:38:05.666Z,979.64
2018-04-14T07:39:05.821Z,979.76
2018-04-14T07:40:06.073Z,979.73
2018-04-14T07:41:05.426Z,979.79
2018-04-14T07:42:05.377Z,979.73
2018-04-14T07:43:05.374Z,979.76
2018-04-14T07:44:10.791Z,979.70
2018-04-14T07:45:05.815Z,979.67
2018-04-14T07:46:10.742Z,979.82
2018-04-14T07:47:05.920Z,979.67
2018-04-14T07:48:05.622Z,979.73
2018-04-14T07:49:06.735Z,979.76
2018-04-14T07:50:06.806Z,979.64
2018-04-14T07:51:05.850Z,979.58
2018-04-14T07:52:05.952Z,979.81
2018-04-14T07:53:06.166Z,979.84
2018-04-14T07:54:05.436Z,979.76
2018-04-14T07:55:06.254Z,979.84
2018-04-14T07:56:05.527Z,979.76
2018-04-14T07:57:05.624Z,979.82
2018-04-14T07:58:05.939Z,979.70
2018-04-14T07:59:05.854Z,979.86
2018-04-14T08:00:05.179Z,979.79
2018-04-14T08:01:05.337Z,979.73
2018-04-14T08:02:05.533Z,979.84
2018-04-14T08:03:05.322Z,979.95
2018-04-14T08:04:05.526Z,979.86
2018-04-14T08:05:05.626Z,979.86
2018-04-14T08:06:10.814Z,979.78
2018-04-14T08:07:05.252Z,980.00
2018-04-14T08:08:12.073Z,979.94
2018-04-14T08:09:05.911Z,980.06
2018-04-14T08:10:05.561Z,980.09
2018-04-14T08:11:05.792Z,979.91
2018-04-14T08:12:05.975Z,980.00
2018-04-14T08:13:06.003Z,979.86
2018-04-14T08:14:05.874Z,980.05
2018-04-14T08:15:05.235Z,979.91
2018-04-14T08:16:05.512Z,980.00
2018-04-14T08:17:05.709Z,979.91
2018-04-14T08:18:05.309Z,980.08
2018-04-14T08:19:05.107Z,979.83
2018-04-14T08:20:05.224Z,979.94
2018-04-14T08:21:05.520Z,980.02
2018-04-14T08:22:05.235Z,979.91
2018-04-14T08:23:05.921Z,980.08
2018-04-14T08:24:05.681Z,979.99
2018-04-14T08:25:05.871Z,979.96
2018-04-14T08:26:06.016Z,980.05
2018-04-14T08:27:05.932Z,980.05
2018-04-14T08:28:05.678Z,980.02
2018-04-14T08:29:05.842Z,980.02
2018-04-14T08:30:06.013Z,979.99
2018-04-14T08:31:05.621Z,980.08
2018-04-14T08:32:05.675Z,980.08
2018-04-14T08:33:05.677Z,980.13
2018-04-14T08:34:05.271Z,980.07
2018-04-14T08:35:05.815Z,979.96
2018-04-14T08:36:05.452Z,980.05
2018-04-14T08:37:05.640Z,980.13
2018-04-14T08:38:05.792Z,980.16
2018-04-14T08:39:05.793Z,980.21
2018-04-14T08:40:06.407Z,980.13
2018-04-14T08:41:05.452Z,980.27
2018-04-14T08:42:06.197Z,980.30
2018-04-14T08:43:05.569Z,980.10
2018-04-14T08:44:05.331Z,980.10
2018-04-14T08:45:05.884Z,980.16
2018-04-14T08:46:05.023Z,980.16
2018-04-14T08:47:05.137Z,980.16
2018-04-14T08:48:05.355Z,980.29
2018-04-14T08:49:05.599Z,980.16
2018-04-14T08:50:06.895Z,980.16
2018-04-14T08:51:05.885Z,980.16
2018-04-14T08:52:05.721Z,980.26
2018-04-14T08:53:10.436Z,980.23
2018-04-14T08:54:05.817Z,980.12
2018-04-14T08:55:06.858Z,980.23
2018-04-14T08:56:05.392Z,980.15
2018-04-14T08:57:05.619Z,980.09
2018-04-14T08:58:05.711Z,980.12
2018-04-14T08:59:05.557Z,980.09
2018-04-14T09:00:05.480Z,980.18
2018-04-14T09:01:05.428Z,980.04
2018-04-14T09:02:10.200Z,980.16
2018-04-14T09:03:05.196Z,980.07
2018-04-14T09:04:05.587Z,980.07
2018-04-14T09:05:05.771Z,980.04
2018-04-14T09:06:05.807Z,980.08
2018-04-14T09:07:04.999Z,980.16
2018-04-14T09:08:11.060Z,980.11
2018-04-14T09:09:05.948Z,980.11
2018-04-14T09:10:10.444Z,980.08
2018-04-14T09:11:05.516Z,980.02
2018-04-14T09:12:05.242Z,980.11
2018-04-14T09:13:05.944Z,980.14
2018-04-14T09:14:05.093Z,980.08
2018-04-14T09:15:05.936Z,980.08
2018-04-14T09:16:05.888Z,980.02
2018-04-14T09:17:05.786Z,980.21
2018-04-14T09:18:05.714Z,980.14
2018-04-14T09:19:05.776Z,980.13
2018-04-14T09:20:05.715Z,979.96
2018-04-14T09:21:05.436Z,980.13
2018-04-14T09:22:05.525Z,980.16
2018-04-14T09:23:05.318Z,980.21
2018-04-14T09:24:05.914Z,980.35
2018-04-14T09:25:05.216Z,980.13
2018-04-14T09:26:05.818Z,980.23
2018-04-14T09:27:05.522Z,980.13
2018-04-14T09:28:05.540Z,980.26
2018-04-14T09:29:05.369Z,980.26
2018-04-14T09:30:05.840Z,980.13
2018-04-14T09:31:05.743Z,980.24
2018-04-14T09:32:05.167Z,980.08
2018-04-14T09:33:05.872Z,980.24
2018-04-14T09:34:05.521Z,980.27
2018-04-14T09:35:05.240Z,980.22
2018-04-14T09:36:05.953Z,980.28
2018-04-14T09:37:05.556Z,980.45
2018-04-14T09:38:05.776Z,980.09
2018-04-14T09:39:05.632Z,980.31
2018-04-14T09:40:05.534Z,980.31
2018-04-14T09:41:05.501Z,980.26
2018-04-14T09:42:05.514Z,980.35
2018-04-14T09:43:05.562Z,980.38
2018-04-14T09:44:05.713Z,980.44
2018-04-14T09:45:04.941Z,980.27
2018-04-14T09:46:05.852Z,980.33
2018-04-14T09:47:05.932Z,980.30
2018-04-14T09:48:05.939Z,980.42
2018-04-14T09:49:05.414Z,980.36
2018-04-14T09:50:05.414Z,980.42
2018-04-14T09:51:05.910Z,980.54
2018-04-14T09:52:05.441Z,980.39
2018-04-14T09:53:05.689Z,980.36
2018-04-14T09:54:05.638Z,980.36
2018-04-14T09:55:05.341Z,980.51
2018-04-14T09:56:05.693Z,980.39
2018-04-14T09:57:05.837Z,980.33
2018-04-14T09:58:05.783Z,980.36
2018-04-14T09:59:05.755Z,980.36
2018-04-14T10:00:05.739Z,980.44
2018-04-14T10:01:05.286Z,980.44
2018-04-14T10:02:05.608Z,980.41
2018-04-14T10:03:05.259Z,980.50
2018-04-14T10:04:05.515Z,980.44
2018-04-14T10:05:06.105Z,980.38
2018-04-14T10:06:05.104Z,980.32
2018-04-14T10:07:06.012Z,980.46
2018-04-14T10:08:05.169Z,980.48
2018-04-14T10:09:05.388Z,980.51
2018-04-14T10:10:05.771Z,980.51
2018-04-14T10:11:05.205Z,980.39
2018-04-14T10:12:09.189Z,980.36
2018-04-14T10:13:05.203Z,980.50
2018-04-14T10:14:06.114Z,980.44
2018-04-14T10:15:05.533Z,980.56
2018-04-14T10:16:06.921Z,980.38
2018-04-14T10:17:05.150Z,980.50
2018-04-14T10:18:05.779Z,980.55
2018-04-14T10:19:05.967Z,980.49
2018-04-14T10:20:05.836Z,980.41
2018-04-14T10:21:06.165Z,980.40
2018-04-14T10:22:05.263Z,980.55
2018-04-14T10:23:05.984Z,980.49
2018-04-14T10:24:05.698Z,980.40
2018-04-14T10:25:05.831Z,980.34
2018-04-14T10:26:05.971Z,980.34
2018-04-14T10:27:06.100Z,980.48
2018-04-14T10:28:10.613Z,980.57
2018-04-14T10:29:05.543Z,980.45
2018-04-14T10:30:05.551Z,980.54
2018-04-14T10:31:05.480Z,980.51
2018-04-14T10:32:05.830Z,980.45
2018-04-14T10:33:06.057Z,980.54
2018-04-14T10:34:05.166Z,980.43
2018-04-14T10:35:05.184Z,980.51
2018-04-14T10:36:05.212Z,980.57
2018-04-14T10:37:06.036Z,980.54
2018-04-14T10:38:10.678Z,980.37
2018-04-14T10:39:05.862Z,980.48
2018-04-14T10:40:10.832Z,980.51
2018-04-14T10:41:05.394Z,980.57
2018-04-14T10:42:05.794Z,980.54
2018-04-14T10:43:05.219Z,980.36
2018-04-14T10:44:05.821Z,980.51
2018-04-14T10:45:05.872Z,980.45
2018-04-14T10:46:05.950Z,980.47
2018-04-14T10:47:06.144Z,980.41
2018-04-14T10:48:05.799Z,980.38
2018-04-14T10:49:05.177Z,980.35
2018-04-14T10:50:05.588Z,980.38
2018-04-14T10:51:05.119Z,980.46
2018-04-14T10:52:05.384Z,980.43
2018-04-14T10:53:04.985Z,980.38
2018-04-14T10:54:06.202Z,980.40
2018-04-14T10:55:05.375Z,980.49
2018-04-14T10:56:05.721Z,980.52
2018-04-14T10:57:05.806Z,980.49
2018-04-14T10:58:05.645Z,980.46
2018-04-14T10:59:05.823Z,980.43
2018-04-14T11:00:05.842Z,980.43
2018-04-14T11:01:05.307Z,980.31
2018-04-14T11:02:05.500Z,980.39
2018-04-14T11:03:05.624Z,980.36
2018-04-14T11:04:05.757Z,980.34
2018-04-14T11:05:05.783Z,980.54
2018-04-14T11:06:06.008Z,980.43
2018-04-14T11:07:05.508Z,980.46
2018-04-14T11:08:05.447Z,980.60
2018-04-14T11:09:10.291Z,980.45
2018-04-14T11:10:05.474Z,980.54
2018-04-14T11:11:06.056Z,980.57
2018-04-14T11:12:05.143Z,980.39
2018-04-14T11:13:05.212Z,980.48
2018-04-14T11:14:05.934Z,980.48
2018-04-14T11:15:05.338Z,980.45
2018-04-14T11:16:05.358Z,980.51
2018-04-14T11:17:05.418Z,980.42
2018-04-14T11:18:05.244Z,980.60
2018-04-14T11:19:05.916Z,980.48
2018-04-14T11:20:06.003Z,980.54
2018-04-14T11:21:05.659Z,980.60
2018-04-14T11:22:05.293Z,980.57
2018-04-14T11:23:05.270Z,980.37
2018-04-14T11:24:05.739Z,980.45
2018-04-14T11:25:05.906Z,980.60
2018-04-14T11:26:05.167Z,980.33
2018-04-14T11:27:04.998Z,980.54
2018-04-14T11:28:05.224Z,980.39
2018-04-14T11:29:05.580Z,980.53
2018-04-14T11:30:06.040Z,980.39
2018-04-14T11:31:05.948Z,980.36
2018-04-14T11:32:05.929Z,980.39
2018-04-14T11:33:05.539Z,980.42
2018-04-14T11:34:05.230Z,980.34
2018-04-14T11:35:05.663Z,980.48
2018-04-14T11:36:05.426Z,980.45
2018-04-14T11:37:05.203Z,980.34
2018-04-14T11:38:04.937Z,980.28
2018-04-14T11:39:05.974Z,980.43
2018-04-14T11:40:05.955Z,980.31
2018-04-14T11:41:05.954Z,980.40
2018-04-14T11:42:05.635Z,980.49
2018-04-14T11:43:05.425Z,980.29
2018-04-14T11:44:05.230Z,980.38
2018-04-14T11:45:06.021Z,980.34
2018-04-14T11:46:05.505Z,980.46
2018-04-14T11:47:06.058Z,980.43
2018-04-14T11:48:05.601Z,980.46
2018-04-14T11:49:05.312Z,980.34
2018-04-14T11:50:05.491Z,980.37
2018-04-14T11:51:05.715Z,980.42
2018-04-14T11:52:06.849Z,980.45
2018-04-14T11:53:11.947Z,980.42
2018-04-14T11:54:05.670Z,980.60
2018-04-14T11:55:05.317Z,980.48
2018-04-14T11:56:05.824Z,980.48
2018-04-14T11:57:05.104Z,980.45
2018-04-14T11:58:05.540Z,980.54
2018-04-14T11:59:05.923Z,980.42
2018-04-14T12:00:05.925Z,980.60
2018-04-14T12:01:05.257Z,980.48
2018-04-14T12:02:05.136Z,980.68
2018-04-14T12:03:05.489Z,980.54
2018-04-14T12:04:05.747Z,980.54
2018-04-14T12:05:05.752Z,980.59
2018-04-14T12:06:05.491Z,980.57
2018-04-14T12:07:06.055Z,980.59
2018-04-14T12:08:05.233Z,980.56
2018-04-14T12:09:06.384Z,980.54
2018-04-14T12:10:05.508Z,980.45
2018-04-14T12:11:05.995Z,980.51
2018-04-14T12:12:05.172Z,980.50
2018-04-14T12:13:05.141Z,980.56
2018-04-14T12:14:05.244Z,980.59
2018-04-14T12:15:05.569Z,980.58
2018-04-14T12:16:05.380Z,980.50
2018-04-14T12:17:05.351Z,980.64
2018-04-14T12:18:05.323Z,980.58
2018-04-14T12:19:05.250Z,980.55
2018-04-14T12:20:06.088Z,980.49
2018-04-14T12:21:06.015Z,980.53
2018-04-14T12:22:05.547Z,980.61
2018-04-14T12:23:05.595Z,980.53
2018-04-14T12:24:05.763Z,980.79
2018-04-14T12:25:05.752Z,980.51
2018-04-14T12:26:05.170Z,980.68
2018-04-14T12:27:05.282Z,980.51
2018-04-14T12:28:05.250Z,980.54